createdAt,value
2022-12-04T00:04:04.577Z,1014.66
2022-12-04T00:32:46.364Z,1014.61
2022-12-04T01:01:33.850Z,1014.45
2022-12-04T01:30:15.628Z,1014.48
2022-12-04T01:59:00.650Z,1014.46
2022-12-04T02:27:47.449Z,1014.4
2022-12-04T02:56:34.940Z,1014.34
2022-12-04T03:25:21.582Z,1014.12
2022-12-04T03:54:04.989Z,1014.16
2022-12-04T04:22:57.122Z,1014.31
2022-12-04T04:51:22.650Z,1014.41
2022-12-04T05:20:06.569Z,1014.28
2022-12-04T05:48:51.232Z,1014.33
2022-12-04T06:17:39.387Z,1014.38
2022-12-04T06:46:29.212Z,1014.58
2022-12-04T07:15:07.881Z,1014.59
2022-12-04T07:43:49.363Z,1014.84
2022-12-04T08:12:38.381Z,1014.94
2022-12-04T08:41:25.358Z,1014.65
2022-12-04T09:10:02.007Z,1014.62
2022-12-04T09:38:29.692Z,1014.8
2022-12-04T10:07:08.884Z,1014.69
2022-12-04T10:35:50.333Z,1014.58
2022-12-04T11:04:25.191Z,1014.66
2022-12-04T11:33:04.599Z,1014.58
2022-12-04T12:01:47.094Z,1014.52
2022-12-04T12:30:19.479Z,1014.33
2022-12-04T12:59:11.447Z,1014.16
2022-12-04T13:27:42.417Z,1013.9
2022-12-04T13:56:16.192Z,1013.87
2022-12-04T14:24:29.141Z,1013.68
2022-12-04T14:53:00.824Z,1013.68
2022-12-04T15:21:37.773Z,1013.74
2022-12-04T15:50:22.526Z,1013.73
2022-12-04T16:18:50.624Z,1013.94
2022-12-04T16:47:31.429Z,1014.01
2022-12-04T17:16:04.384Z,1014.19
2022-12-04T17:44:41.760Z,1014.2
2022-12-04T18:13:16.861Z,1014.54
2022-12-04T18:41:51.265Z,1014.78
2022-12-04T19:10:32.592Z,1014.72
2022-12-04T19:39:04.855Z,1014.92
2022-12-04T20:07:39.180Z,1015.09
2022-12-04T20:36:09.537Z,1015.06
2022-12-04T21:04:50.904Z,1015.21
2022-12-04T21:33:30.455Z,1015.59
2022-12-04T22:02:08.162Z,1015.99
2022-12-04T22:30:48.278Z,1016.09
2022-12-04T22:59:25.612Z,1016.09
2022-12-04T23:28:03.292Z,1016.76
2022-12-04T23:56:45.876Z,1016.84
